Oentsjerk, Netherlands
Current Conditions -  °F | °C
As of 6:03 AM on Saturday 25 Oct 2014 (Local Time) from EHLW Reporting Station
Haze Haze  
Wind Chill: 55°   Ceiling: 700
Heat Index: 55°   Visibility: 2.7mi
Dew Point: 55°   Wind: 7mph
Humidity: 100%   Direction: 220°SW
Pressure: 29.91"   Gusts: NA
Location:  53.25°N, 5.9°E
Report Text: EHLW 250403Z AUTO 22006KT 4400 BR FEW003 BKN007 BKN008 13/13 Q1013 GRN
Loading
Personal Weather Stations






























Interactive Weather Map
Tropical Storm Tracking
New forecast layout! Learn more

10-Day Weather Forecast

Advertisements
Track Severe Weather on mobile